Time;durP1;ratioP1;P1;durP2;ratioP2;P2;SDS_P1;SDS_P2;PMS_P1;PMS_P2;Temp;Humidity;BMP_temperature;BMP_pressure;BME280_temperature;BME280_humidity;BME280_pressure;Samples;Min_cycle;Max_cycle;Signal;HPM_P1;HPM_P2
2021/07/15 00:00:38;;;;;;;3.97;2.30;;;;;;;17.24;100.00;100797.47;6274842;28;20045;-76
2021/07/15 00:03:41;;;;;;;4.70;2.35;;;;;;;17.24;100.00;100786.84;6275116;28;20056;-76
2021/07/15 00:06:43;;;;;;;8.25;2.33;;;;;;;17.16;100.00;100783.97;6270456;28;20052;-76
2021/07/15 00:09:44;;;;;;;4.40;1.80;;;;;;;17.22;100.00;100791.44;6274706;28;20417;-76
2021/07/15 00:12:46;;;;;;;5.50;1.98;;;;;;;17.27;100.00;100784.94;6274773;28;20131;-77
2021/07/15 00:15:50;;;;;;;4.00;2.70;;;;;;;17.27;100.00;100785.75;6274363;28;20045;-76
2021/07/15 00:18:54;;;;;;;8.90;3.08;;;;;;;17.23;100.00;100779.00;6273152;28;20106;-76
2021/07/15 00:21:57;;;;;;;8.23;2.55;;;;;;;17.24;100.00;100781.53;6274909;28;20048;-76
2021/07/15 00:24:59;;;;;;;4.82;2.50;;;;;;;17.33;100.00;100779.94;6274346;28;20579;-76
2021/07/15 00:28:01;;;;;;;9.35;2.80;;;;;;;17.27;100.00;100782.28;6273335;28;20088;-76
2021/07/15 00:31:03;;;;;;;7.32;2.20;;;;;;;17.23;100.00;100779.84;6274226;28;20428;-77
2021/07/15 00:34:06;;;;;;;12.32;2.63;;;;;;;17.27;100.00;100771.66;6273784;28;20500;-76
2021/07/15 00:37:08;;;;;;;7.35;2.38;;;;;;;17.30;100.00;100756.28;6273823;28;20045;-76
2021/07/15 00:40:12;;;;;;;7.57;2.30;;;;;;;17.25;100.00;100769.09;6273829;28;20041;-76
2021/07/15 00:43:13;;;;;;;15.90;2.45;;;;;;;17.26;100.00;100770.81;6274388;28;20407;-77
2021/07/15 00:46:15;;;;;;;9.43;2.58;;;;;;;17.28;100.00;100774.16;6273548;28;20074;-76
2021/07/15 00:49:17;;;;;;;8.68;2.50;;;;;;;17.26;100.00;100784.09;6273974;28;20052;-77
2021/07/15 00:52:19;;;;;;;8.10;2.58;;;;;;;17.24;100.00;100770.91;6273868;28;20420;-76
2021/07/15 00:55:24;;;;;;;11.95;2.35;;;;;;;17.27;100.00;100791.09;6273872;28;20056;-76
2021/07/15 00:58:26;;;;;;;8.05;2.38;;;;;;;17.26;100.00;100802.69;6273137;28;20048;-77
2021/07/15 01:01:27;;;;;;;6.65;2.50;;;;;;;17.23;100.00;100803.75;6273715;28;20045;-77
2021/07/15 01:04:30;;;;;;;7.38;2.72;;;;;;;17.26;100.00;100813.31;6273124;28;20072;-77
2021/07/15 01:07:31;;;;;;;8.38;2.13;;;;;;;17.27;100.00;100814.16;6272967;28;20049;-77
2021/07/15 01:10:38;;;;;;;11.73;2.17;;;;;;;17.25;100.00;100816.91;6273045;28;20680;-77
2021/07/15 01:13:48;;;;;;;9.80;2.63;;;;;;;17.23;100.00;100813.53;6273768;28;20057;-76
2021/07/15 01:16:58;;;;;;;9.15;2.50;;;;;;;17.23;100.00;100832.97;6272811;28;20182;-77
2021/07/15 01:20:34;;;;;;;11.18;2.85;;;;;;;17.23;100.00;100843.59;6273004;28;20493;-76
2021/07/15 01:24:00;;;;;;;8.70;2.72;;;;;;;17.21;100.00;100842.88;6273277;28;20067;-77
2021/07/15 01:27:37;;;;;;;8.15;2.70;;;;;;;17.20;100.00;100840.34;6272679;28;20179;-77
2021/07/15 01:30:43;;;;;;;3.63;2.15;;;;;;;17.17;100.00;100840.59;6272132;28;20068;-77
2021/07/15 01:33:48;;;;;;;5.45;2.40;;;;;;;17.20;100.00;100845.66;6272498;28;20052;-77
2021/07/15 01:36:54;;;;;;;11.65;2.60;;;;;;;17.18;100.00;100843.13;6272178;28;20471;-77
2021/07/15 01:39:57;;;;;;;8.60;2.67;;;;;;;17.19;100.00;100844.81;6273299;28;20047;-77
2021/07/15 01:43:02;;;;;;;8.00;2.85;;;;;;;17.20;100.00;100848.31;6272711;28;20512;-77
2021/07/15 01:46:07;;;;;;;5.43;2.30;;;;;;;17.19;100.00;100844.81;6272588;28;20073;-77
2021/07/15 01:49:09;;;;;;;13.02;2.97;;;;;;;17.18;100.00;100855.56;6271864;28;20689;-76
2021/07/15 01:52:12;;;;;;;9.80;2.70;;;;;;;17.17;100.00;100849.41;6272746;28;20053;-77
2021/07/15 01:55:14;;;;;;;9.82;2.10;;;;;;;17.20;100.00;100854.47;6272070;28;20045;-77
2021/07/15 01:58:16;;;;;;;9.15;2.58;;;;;;;17.17;100.00;100865.34;6271478;28;20059;-77
2021/07/15 02:01:19;;;;;;;6.28;2.25;;;;;;;17.16;100.00;100863.63;6272266;28;20056;-77
2021/07/15 02:04:21;;;;;;;11.10;2.38;;;;;;;17.14;100.00;100868.22;6272310;28;20084;-76
2021/07/15 02:07:24;;;;;;;7.25;2.50;;;;;;;17.15;100.00;100869.91;6271547;28;20052;-76
2021/07/15 02:10:26;;;;;;;11.15;2.70;;;;;;;17.12;100.00;100872.84;6272218;28;20052;-77
2021/07/15 02:13:28;;;;;;;6.95;2.20;;;;;;;17.11;100.00;100851.69;6271700;28;20052;-77
2021/07/15 02:16:32;;;;;;;2.25;2.05;;;;;;;17.12;100.00;100845.41;6271339;28;20052;-77
2021/07/15 02:19:34;;;;;;;8.35;2.25;;;;;;;17.08;100.00;100836.00;6271879;28;20048;-77
2021/07/15 02:22:37;;;;;;;5.25;1.95;;;;;;;17.09;100.00;100827.91;6271885;28;20056;-76
2021/07/15 02:25:40;;;;;;;9.80;2.55;;;;;;;17.05;100.00;100826.47;6271595;28;20049;-77
2021/07/15 02:28:42;;;;;;;6.57;2.45;;;;;;;17.05;100.00;100822.97;6270562;28;20147;-76
2021/07/15 02:31:49;;;;;;;3.13;2.30;;;;;;;17.03;100.00;100823.06;6271800;28;20045;-76
2021/07/15 02:34:54;;;;;;;8.57;2.13;;;;;;;17.03;100.00;100820.41;6271425;28;20076;-77
2021/07/15 02:37:58;;;;;;;6.28;2.10;;;;;;;17.05;100.00;100817.66;6271053;28;20053;-76
2021/07/15 02:41:00;;;;;;;16.40;3.22;;;;;;;17.02;100.00;100815.25;6271183;28;20440;-77
2021/07/15 02:44:02;;;;;;;10.25;2.70;;;;;;;16.99;100.00;100819.00;6271062;28;20049;-76
2021/07/15 02:47:07;;;;;;;3.28;2.42;;;;;;;17.06;100.00;100835.28;6270718;28;20053;-76
2021/07/15 02:50:10;;;;;;;6.20;2.20;;;;;;;17.07;100.00;100835.16;6265375;28;20056;-77
2021/07/15 02:53:12;;;;;;;6.60;2.22;;;;;;;17.07;100.00;100834.31;6271266;28;20048;-77
2021/07/15 02:56:22;;;;;;;11.40;2.15;;;;;;;17.02;100.00;100832.00;6270821;28;20051;-77
2021/07/15 02:59:30;;;;;;;11.95;3.00;;;;;;;17.03;100.00;100838.16;6267015;28;20049;-77
2021/07/15 03:02:38;;;;;;;3.80;2.58;;;;;;;17.02;100.00;100842.63;6265254;28;20057;-76
2021/07/15 03:05:52;;;;;;;9.57;2.13;;;;;;;17.02;100.00;100850.59;6262498;28;20048;-77
2021/07/15 03:08:59;;;;;;;8.93;2.35;;;;;;;17.01;100.00;100838.28;6269422;28;20833;-77
2021/07/15 03:12:06;;;;;;;8.88;2.33;;;;;;;17.02;100.00;100839.13;6256293;28;20041;-76
2021/07/15 03:15:08;;;;;;;7.32;2.47;;;;;;;17.01;100.00;100840.13;6246206;28;20050;-77
2021/07/15 03:18:16;;;;;;;7.18;2.70;;;;;;;17.00;100.00;100839.28;6245568;28;20060;-77
2021/07/15 03:21:20;;;;;;;8.05;3.00;;;;;;;16.99;100.00;100841.09;6246652;28;20041;-77
2021/07/15 03:24:24;;;;;;;7.85;2.72;;;;;;;16.96;100.00;100846.63;6245815;28;20057;-77
2021/07/15 03:27:27;;;;;;;5.18;2.85;;;;;;;16.98;100.00;100836.72;6245804;28;20050;-76
2021/07/15 03:30:30;;;;;;;4.28;2.30;;;;;;;16.98;100.00;100844.69;6246115;28;20041;-77
2021/07/15 03:33:35;;;;;;;8.60;2.97;;;;;;;16.99;100.00;100835.78;6246048;28;20090;-76
2021/07/15 03:36:40;;;;;;;9.60;2.35;;;;;;;17.02;100.00;100842.63;6244841;28;20042;-76
2021/07/15 03:39:45;;;;;;;4.57;2.58;;;;;;;17.02;100.00;100849.75;6245939;28;20064;-77
2021/07/15 03:42:47;;;;;;;7.78;2.78;;;;;;;17.01;100.00;100848.91;6246376;28;20048;-76
2021/07/15 03:45:50;;;;;;;8.63;2.40;;;;;;;17.01;100.00;100854.22;6245530;28;20425;-77
2021/07/15 03:48:54;;;;;;;10.65;3.25;;;;;;;17.01;100.00;100864.00;6245599;28;20060;-76
2021/07/15 03:51:55;;;;;;;12.23;2.92;;;;;;;17.02;100.00;100866.53;6245635;28;20049;-77
2021/07/15 03:54:58;;;;;;;14.43;2.13;;;;;;;17.02;100.00;100857.72;6249568;28;20056;-77
2021/07/15 03:58:04;;;;;;;8.68;2.22;;;;;;;17.01;100.00;100867.50;6249787;28;20417;-76
2021/07/15 04:01:07;;;;;;;5.15;2.40;;;;;;;17.03;100.00;100870.03;6250795;28;20053;-77
2021/07/15 04:04:13;;;;;;;5.53;2.40;;;;;;;17.02;100.00;100866.53;6250073;28;20060;-77
2021/07/15 04:07:18;;;;;;;5.68;2.40;;;;;;;17.02;100.00;100868.34;6250100;28;20049;-77
2021/07/15 04:10:20;;;;;;;10.77;2.47;;;;;;;17.03;100.00;100868.22;6250071;28;20497;-77
2021/07/15 04:13:25;;;;;;;8.90;3.10;;;;;;;17.03;100.00;100872.69;6250388;28;20053;-77
2021/07/15 04:16:37;;;;;;;13.80;3.47;;;;;;;17.05;100.00;100876.09;6249833;28;20421;-77
2021/07/15 04:19:40;;;;;;;11.90;4.15;;;;;;;17.04;100.00;100880.53;6250354;28;20083;-77
2021/07/15 04:22:45;;;;;;;10.05;3.60;;;;;;;17.05;100.00;100876.09;6257817;28;20057;-77
2021/07/15 04:25:47;;;;;;;7.63;3.13;;;;;;;17.08;100.00;100878.47;6260689;28;20041;-77
2021/07/15 04:28:49;;;;;;;10.95;3.10;;;;;;;17.09;100.00;100880.19;6258566;28;20064;-77
2021/07/15 04:32:05;;;;;;;6.40;2.97;;;;;;;17.07;100.00;100887.41;6259271;28;20060;-77
2021/07/15 04:35:10;;;;;;;4.70;3.17;;;;;;;17.10;100.00;100896.00;6259185;28;20064;-76
2021/07/15 04:38:12;;;;;;;14.00;3.20;;;;;;;17.14;100.00;100893.94;6258727;28;20057;-77
2021/07/15 04:41:14;;;;;;;11.82;3.05;;;;;;;17.12;100.00;100890.53;6261423;28;20045;-77
2021/07/15 04:44:17;;;;;;;5.60;2.40;;;;;;;17.15;100.00;100891.16;6268341;28;20059;-76
2021/07/15 04:47:21;;;;;;;5.07;2.30;;;;;;;17.14;100.00;100905.41;6273351;28;20060;-76
2021/07/15 04:50:29;;;;;;;4.45;2.33;;;;;;;17.16;100.00;100906.13;6273503;28;20211;-76
2021/07/15 04:53:32;;;;;;;9.10;2.55;;;;;;;17.16;100.00;100900.81;6261711;28;20533;-76
2021/07/15 04:56:35;;;;;;;15.35;2.85;;;;;;;17.18;100.00;100911.34;6260659;28;20045;-78
2021/07/15 04:59:40;;;;;;;4.55;2.15;;;;;;;17.19;100.00;100916.50;6273470;28;20053;-77
2021/07/15 05:02:41;;;;;;;6.85;2.15;;;;;;;17.22;100.00;100908.31;6273756;28;20056;-77
2021/07/15 05:05:44;;;;;;;5.38;2.40;;;;;;;17.22;100.00;100916.28;6273317;28;20063;-77
2021/07/15 05:08:45;;;;;;;9.40;2.50;;;;;;;17.23;100.00;100912.66;6272763;28;20049;-77
2021/07/15 05:11:47;;;;;;;4.75;2.28;;;;;;;17.27;100.00;100912.44;6273716;28;20056;-77
2021/07/15 05:14:48;;;;;;;2.60;2.08;;;;;;;17.28;100.00;100911.44;6272997;28;20041;-76
2021/07/15 05:17:49;;;;;;;11.88;2.70;;;;;;;17.30;100.00;100912.16;6272524;28;20055;-77
2021/07/15 05:20:53;;;;;;;5.65;2.13;;;;;;;17.33;100.00;100909.28;6273611;28;20056;-77
2021/07/15 05:23:54;;;;;;;12.18;2.60;;;;;;;17.34;100.00;100914.44;6273064;28;20055;-77
2021/07/15 05:26:55;;;;;;;5.03;2.03;;;;;;;17.37;100.00;100916.88;6273037;28;20053;-78
2021/07/15 05:29:57;;;;;;;8.55;3.10;;;;;;;17.42;100.00;100916.50;6273096;28;20049;-78
2021/07/15 05:32:59;;;;;;;7.97;3.22;;;;;;;17.46;100.00;100918.81;6272609;28;20045;-77
2021/07/15 05:36:01;;;;;;;11.75;3.60;;;;;;;17.49;100.00;100917.72;6272383;28;20206;-76
2021/07/15 05:39:05;;;;;;;4.18;2.90;;;;;;;17.51;100.00;100913.13;6271938;28;20489;-76
2021/07/15 05:42:06;;;;;;;8.02;3.25;;;;;;;17.49;100.00;100915.91;6273116;28;20076;-76
2021/07/15 05:45:08;;;;;;;7.82;2.95;;;;;;;17.55;100.00;100914.56;6273077;28;20045;-76
2021/07/15 05:48:09;;;;;;;8.48;3.00;;;;;;;17.57;100.00;100914.44;6271869;28;20056;-76
2021/07/15 05:51:12;;;;;;;8.73;3.22;;;;;;;17.59;100.00;100915.19;6272984;28;20041;-76
2021/07/15 05:54:13;;;;;;;9.60;2.72;;;;;;;17.62;100.00;100922.88;6272817;28;20049;-76
2021/07/15 05:57:15;;;;;;;3.85;2.45;;;;;;;17.66;100.00;100934.97;6272483;28;20511;-76
2021/07/15 06:00:17;;;;;;;9.77;1.95;;;;;;;17.70;100.00;100937.25;6272585;28;20056;-76
2021/07/15 06:03:19;;;;;;;5.40;2.15;;;;;;;17.75;100.00;100943.06;6272640;28;20044;-76
2021/07/15 06:06:21;;;;;;;3.50;1.80;;;;;;;17.76;100.00;100943.94;6268066;28;20053;-76
2021/07/15 06:09:23;;;;;;;3.33;1.75;;;;;;;17.78;100.00;100943.81;6271661;28;20052;-76
2021/07/15 06:12:24;;;;;;;8.43;1.80;;;;;;;17.78;100.00;100951.78;6271844;28;20071;-76
2021/07/15 06:15:26;;;;;;;4.03;1.92;;;;;;;17.81;100.00;100943.56;6271201;28;20427;-76
2021/07/15 06:18:27;;;;;;;18.58;1.77;;;;;;;17.86;100.00;100950.19;6271772;28;20389;-76
2021/07/15 06:21:30;;;;;;;2.72;1.45;;;;;;;17.90;100.00;100954.31;6272390;28;20053;-76
2021/07/15 06:24:31;;;;;;;4.65;1.60;;;;;;;17.96;100.00;100947.66;6272275;28;20056;-77
2021/07/15 06:27:33;;;;;;;3.05;1.70;;;;;;;17.89;100.00;100941.13;6266187;28;20420;-76
2021/07/15 06:30:34;;;;;;;1.63;1.40;;;;;;;17.87;100.00;100935.09;6272317;28;20491;-77
2021/07/15 06:33:37;;;;;;;10.70;1.85;;;;;;;17.83;100.00;100931.84;6272051;28;20052;-76
2021/07/15 06:36:43;;;;;;;7.00;1.65;;;;;;;17.89;100.00;100943.78;6271326;28;20465;-76
2021/07/15 06:39:45;;;;;;;2.58;1.50;;;;;;;17.84;100.00;100932.66;6261536;28;20048;-77
2021/07/15 06:42:46;;;;;;;3.47;1.63;;;;;;;17.89;100.00;100935.81;6271561;28;20067;-76
2021/07/15 06:45:48;;;;;;;3.10;1.52;;;;;;;17.89;100.00;100947.28;6271282;28;20056;-76
2021/07/15 06:48:49;;;;;;;4.68;1.80;;;;;;;17.92;100.00;100957.69;6270606;28;20053;-77
2021/07/15 06:51:52;;;;;;;6.90;1.85;;;;;;;17.97;100.00;100958.16;6271560;28;20057;-76
2021/07/15 06:54:55;;;;;;;3.90;1.77;;;;;;;18.18;100.00;100968.03;6271300;28;20057;-75
2021/07/15 06:57:57;;;;;;;5.63;1.67;;;;;;;18.10;100.00;100965.97;6271249;28;20064;-75
2021/07/15 07:00:58;;;;;;;6.05;1.52;;;;;;;18.14;100.00;100969.25;6271011;28;20049;-76
2021/07/15 07:03:59;;;;;;;11.30;1.63;;;;;;;18.20;100.00;100974.88;6271108;28;20527;-75
2021/07/15 07:07:02;;;;;;;4.03;1.20;;;;;;;18.47;100.00;100970.94;6270398;28;20412;-75
2021/07/15 07:10:05;;;;;;;14.20;1.70;;;;;;;18.45;100.00;100965.75;6270785;28;20057;-74
2021/07/15 07:13:06;;;;;;;8.13;1.42;;;;;;;18.51;100.00;100973.22;6269558;28;20060;-74
2021/07/15 07:16:08;;;;;;;10.82;1.80;;;;;;;18.57;100.00;100966.53;6270119;28;20052;-74
2021/07/15 07:19:09;;;;;;;3.97;1.90;;;;;;;18.65;100.00;100966.72;6269473;28;20048;-74
2021/07/15 07:22:12;;;;;;;8.43;1.48;;;;;;;18.54;100.00;100968.63;6269992;28;20045;-75
2021/07/15 07:25:14;;;;;;;2.90;1.30;;;;;;;18.56;100.00;100959.53;6269637;28;20049;-75
2021/07/15 07:28:16;;;;;;;1.92;1.30;;;;;;;18.57;100.00;100969.19;6270707;28;20515;-75
2021/07/15 07:31:17;;;;;;;3.15;1.52;;;;;;;18.69;100.00;100978.00;6274985;28;20060;-75
2021/07/15 07:34:19;;;;;;;3.53;1.17;;;;;;;18.81;100.00;100986.81;6275188;28;20056;-74
2021/07/15 07:37:22;;;;;;;2.67;1.42;;;;;;;18.79;100.00;100989.56;6274488;28;20045;-75
2021/07/15 07:40:24;;;;;;;3.92;1.30;;;;;;;18.82;100.00;100988.47;6272351;28;20045;-75
2021/07/15 07:43:25;;;;;;;2.05;1.27;;;;;;;18.92;100.00;100997.38;6273107;28;20049;-72
2021/07/15 07:46:26;;;;;;;2.72;1.30;;;;;;;18.98;100.00;101003.00;6267095;28;20052;-74
2021/07/15 07:49:28;;;;;;;6.68;1.75;;;;;;;19.17;100.00;100999.66;6264614;28;20052;-72
2021/07/15 07:52:31;;;;;;;2.17;1.30;;;;;;;19.21;100.00;100995.75;6275195;28;20052;-74
2021/07/15 07:55:32;;;;;;;5.20;1.58;;;;;;;19.12;99.78;100988.56;6274542;28;20064;-75
2021/07/15 07:58:33;;;;;;;3.65;1.70;;;;;;;19.18;99.58;100987.19;6259172;28;20386;-75
2021/07/15 08:01:35;;;;;;;2.85;1.20;;;;;;;19.16;100.00;100981.97;6250428;28;20045;-74
2021/07/15 08:04:36;;;;;;;4.63;1.58;;;;;;;19.16;100.00;100997.09;6249870;28;20049;-74
2021/07/15 08:07:39;;;;;;;4.38;1.60;;;;;;;19.30;100.00;100985.25;6249429;28;20042;-74
2021/07/15 08:10:41;;;;;;;4.50;1.42;;;;;;;19.42;100.00;100994.88;6250320;28;20505;-74
2021/07/15 08:13:42;;;;;;;2.53;1.35;;;;;;;19.57;99.92;101008.69;6267337;28;20052;-74
2021/07/15 08:16:45;;;;;;;7.88;2.70;;;;;;;19.43;100.00;101010.72;6249689;28;20068;-73
2021/07/15 08:19:47;;;;;;;5.88;1.40;;;;;;;19.40;100.00;101004.84;6249217;28;20049;-74
2021/07/15 08:22:50;;;;;;;5.97;1.60;;;;;;;19.36;100.00;101017.56;6249578;28;20053;-74
2021/07/15 08:25:51;;;;;;;4.13;1.55;;;;;;;19.46;100.00;101020.28;6249440;28;20060;-74
2021/07/15 08:28:52;;;;;;;4.50;1.40;;;;;;;19.44;100.00;101017.75;6248337;28;20056;-74
2021/07/15 08:31:54;;;;;;;2.33;1.23;;;;;;;19.62;100.00;101031.34;6249568;28;20053;-74
2021/07/15 08:34:55;;;;;;;3.08;1.67;;;;;;;19.52;100.00;101039.25;6253922;28;20531;-74
2021/07/15 08:37:59;;;;;;;8.55;1.40;;;;;;;19.50;100.00;101038.53;6271390;28;20055;-76
2021/07/15 08:41:00;;;;;;;4.60;1.40;;;;;;;19.49;100.00;101034.19;6271673;28;20053;-76
2021/07/15 08:44:02;;;;;;;3.83;1.55;;;;;;;19.59;100.00;101030.75;6273568;28;20049;-76
2021/07/15 08:47:04;;;;;;;3.08;1.20;;;;;;;19.69;99.83;101036.97;6273511;28;20060;-76
2021/07/15 08:50:07;;;;;;;1.60;1.20;;;;;;;19.80;95.30;101036.88;6273532;28;20049;-73
2021/07/15 08:53:11;;;;;;;4.07;1.15;;;;;;;19.65;97.04;101032.88;6273064;28;20505;-74
2021/07/15 08:59:33;;;;;;;4.90;1.20;;;;;;;19.69;99.59;101027.16;6272074;28;20049;-75
2021/07/15 09:02:35;;;;;;;1.33;1.10;;;;;;;19.79;97.97;101023.69;6273043;28;20052;-75
2021/07/15 09:05:37;;;;;;;2.53;1.50;;;;;;;19.85;100.00;101032.00;6272906;28;20048;-75
2021/07/15 09:08:39;;;;;;;3.00;1.48;;;;;;;20.06;95.58;101039.91;6271823;28;20049;-75
2021/07/15 09:11:42;;;;;;;5.47;1.25;;;;;;;19.97;100.00;101044.25;6273626;28;20045;-75
2021/07/15 09:14:45;;;;;;;4.75;1.48;;;;;;;20.12;93.97;101052.75;6272496;28;20055;-75
2021/07/15 09:17:47;;;;;;;4.93;1.08;;;;;;;20.02;94.44;101051.84;6272748;28;20052;-75
2021/07/15 09:20:49;;;;;;;1.92;1.15;;;;;;;19.95;93.40;101048.88;6272429;28;20057;-75
2021/07/15 09:23:51;;;;;;;5.60;1.20;;;;;;;20.01;96.79;101045.66;6272725;28;20045;-75
2021/07/15 09:26:53;;;;;;;3.63;1.27;;;;;;;20.17;97.64;101045.16;6272703;28;20053;-74
2021/07/15 09:30:07;;;;;;;2.63;1.30;;;;;;;20.11;96.42;101047.53;6271795;28;20056;-75
2021/07/15 09:33:11;;;;;;;2.08;1.33;;;;;;;20.15;95.52;101043.59;6270927;28;20052;-75
2021/07/15 09:36:14;;;;;;;1.58;1.20;;;;;;;20.30;94.60;101034.22;6271425;28;20060;-75
2021/07/15 09:39:22;;;;;;;2.60;1.48;;;;;;;20.24;95.15;101046.28;6270064;28;20059;-75
2021/07/15 09:42:25;;;;;;;2.90;1.40;;;;;;;20.39;91.66;101040.56;6272755;28;20121;-75
2021/07/15 09:45:29;;;;;;;2.83;1.45;;;;;;;20.32;96.09;101036.75;6271888;28;20064;-75
2021/07/15 09:48:32;;;;;;;3.28;1.27;;;;;;;20.37;95.39;101035.38;6271754;28;20511;-73
2021/07/15 09:51:42;;;;;;;4.35;1.35;;;;;;;20.45;94.67;101032.00;6271418;28;20056;-75
2021/07/15 09:54:45;;;;;;;1.23;1.10;;;;;;;20.45;91.64;101046.19;6271844;28;20104;-74
2021/07/15 09:57:46;;;;;;;5.55;1.10;;;;;;;20.79;91.45;101048.50;6271522;28;20044;-75
2021/07/15 10:00:48;;;;;;;1.40;0.93;;;;;;;20.93;88.78;101045.38;6272104;28;20057;-74
2021/07/15 10:03:54;;;;;;;6.38;1.30;;;;;;;21.10;90.88;101041.16;6271191;28;20076;-74
2021/07/15 10:06:57;;;;;;;5.10;1.00;;;;;;;21.26;86.98;101024.56;6272358;28;20051;-77
2021/07/15 10:10:20;;;;;;;4.53;1.13;;;;;;;21.42;81.01;101024.81;6270100;28;20053;-77
2021/07/15 10:13:23;;;;;;;6.32;1.00;;;;;;;21.21;83.77;101030.34;6272333;28;20049;-76
2021/07/15 10:16:28;;;;;;;1.17;1.08;;;;;;;21.00;85.17;101024.31;6270558;28;20056;-77
2021/07/15 10:19:29;;;;;;;3.67;1.00;;;;;;;21.09;86.77;101026.13;6272376;28;20045;-77
2021/07/15 10:22:31;;;;;;;2.97;1.30;;;;;;;21.15;84.64;101016.69;6272689;28;20041;-77
2021/07/15 10:25:35;;;;;;;3.58;1.40;;;;;;;21.15;84.04;101025.53;6273490;28;20386;-79
2021/07/15 10:28:37;;;;;;;2.95;1.30;;;;;;;21.28;82.31;101026.06;6272917;28;20067;-78
2021/07/15 10:31:40;;;;;;;1.73;1.33;;;;;;;21.39;82.93;101033.13;6272413;28;20067;-76
2021/07/15 10:34:43;;;;;;;3.42;1.10;;;;;;;21.31;79.41;101030.34;6273418;28;20052;-78
2021/07/15 10:37:48;;;;;;;4.68;1.25;;;;;;;21.33;84.52;101027.50;6273209;28;20585;-77
2021/07/15 10:40:51;;;;;;;4.70;1.40;;;;;;;21.46;84.24;101036.06;6273893;28;20443;-77
2021/07/15 10:43:54;;;;;;;1.70;1.23;;;;;;;21.48;82.63;101045.63;6272366;28;20049;-78
2021/07/15 10:46:58;;;;;;;1.40;1.30;;;;;;;21.55;81.26;101043.22;6274103;28;20049;-77
2021/07/15 10:50:00;;;;;;;8.30;1.40;;;;;;;21.60;82.45;101035.59;6273015;28;20045;-78
2021/07/15 10:53:02;;;;;;;2.92;1.23;;;;;;;21.84;79.14;101043.09;6274525;28;20135;-76
2021/07/15 10:56:06;;;;;;;1.85;1.00;;;;;;;21.74;80.90;101044.97;6272974;28;20068;-78
2021/07/15 10:59:23;;;;;;;2.70;1.17;;;;;;;22.02;76.39;101046.66;6270397;28;20515;-77
2021/07/15 11:02:26;;;;;;;3.80;1.05;;;;;;;21.98;75.71;101047.09;6271349;28;20044;-76
2021/07/15 11:05:27;;;;;;;2.33;1.00;;;;;;;21.77;80.47;101045.53;6272139;28;20130;-77
2021/07/15 11:08:56;;;;;;;5.28;1.25;;;;;;;22.00;82.37;101048.66;6272149;28;20135;-79
2021/07/15 11:12:00;;;;;;;;;;;;;;;22.26;75.70;101040.81;6272083;28;20544;-76
2021/07/15 11:15:06;;;;;;;2.42;1.20;;;;;;;22.43;74.94;101052.50;6271043;28;19928;-75
2021/07/15 11:18:07;;;;;;;1.75;1.20;;;;;;;22.43;73.56;101051.66;6271681;28;20052;-77
2021/07/15 11:21:31;;;;;;;1.98;1.02;;;;;;;22.53;69.97;101057.81;6272808;28;20060;-78
2021/07/15 11:25:01;;;;;;;2.53;1.40;;;;;;;22.69;71.48;101065.16;6272364;28;20187;-77
2021/07/15 11:28:17;;;;;;;1.20;1.10;;;;;;;22.83;72.43;101064.63;6271570;28;20067;-77
2021/07/15 11:31:40;;;;;;;2.63;1.30;;;;;;;23.14;67.93;101058.88;6271723;28;20056;-77
2021/07/15 11:34:50;;;;;;;1.70;1.02;;;;;;;23.40;69.88;101054.38;6271395;28;20045;-76
2021/07/15 11:38:06;;;;;;;5.30;1.13;;;;;;;23.53;67.36;101068.22;6270159;28;20052;-77
2021/07/15 11:41:10;;;;;;;1.58;1.02;;;;;;;23.90;65.64;101061.75;6272761;28;20041;-78
2021/07/15 11:44:14;;;;;;;4.22;2.30;;;;;;;23.73;66.38;101071.56;6272514;28;20412;-78
2021/07/15 11:47:45;;;;;;;2.40;1.30;;;;;;;24.02;68.57;101060.44;6271761;28;20508;-76
2021/07/15 11:50:48;;;;;;;6.45;1.02;;;;;;;24.48;66.65;101076.22;6272742;28;20049;-77
2021/07/15 11:54:18;;;;;;;3.55;1.05;;;;;;;25.09;66.24;101064.22;6272104;28;20714;-77
2021/07/15 11:57:27;;;;;;;8.57;1.05;;;;;;;25.06;63.40;101067.22;6270796;28;20415;-78
2021/07/15 12:00:30;;;;;;;2.88;0.95;;;;;;;24.94;59.19;101072.13;6271542;28;20049;-77
2021/07/15 12:03:32;;;;;;;4.32;1.08;;;;;;;24.02;65.98;101059.59;6271549;28;20519;-77
2021/07/15 12:06:35;;;;;;;1.83;1.00;;;;;;;23.73;67.88;101076.09;6267167;28;20048;-78
2021/07/15 12:09:46;;;;;;;2.15;1.00;;;;;;;23.29;66.10;101062.69;6270398;28;20132;-77
2021/07/15 12:12:48;;;;;;;2.20;1.30;;;;;;;23.15;66.28;101071.28;6270928;28;20045;-76
2021/07/15 12:15:52;;;;;;;1.45;0.90;;;;;;;23.21;66.88;101066.16;6273417;28;20056;-76
2021/07/15 12:18:54;;;;;;;2.15;1.10;;;;;;;22.99;67.71;101066.66;6274595;28;20065;-77
2021/07/15 12:21:59;;;;;;;3.95;1.00;;;;;;;22.99;65.86;101072.84;6274582;28;20053;-77
2021/07/15 12:25:11;;;;;;;1.70;1.02;;;;;;;22.69;72.04;101078.56;6276806;28;20049;-77
2021/07/15 12:28:16;;;;;;;1.52;1.15;;;;;;;22.66;71.61;101079.69;6274150;28;20056;-76
2021/07/15 12:31:21;;;;;;;2.25;1.05;;;;;;;22.58;70.08;101078.78;6275364;28;20415;-76
2021/07/15 12:34:27;;;;;;;4.43;1.00;;;;;;;22.82;67.32;101070.16;6274024;28;20412;-76
2021/07/15 12:37:30;;;;;;;1.58;0.95;;;;;;;23.24;68.22;101081.09;6274047;28;20401;-77
2021/07/15 12:40:32;;;;;;;3.20;1.10;;;;;;;24.16;70.66;101076.94;6275490;28;20182;-77
2021/07/15 12:43:52;;;;;;;3.58;1.10;;;;;;;24.82;66.68;101080.66;6274474;28;20088;-75
2021/07/15 12:46:56;;;;;;;1.45;1.10;;;;;;;25.50;66.52;101080.34;6274453;28;20211;-77
2021/07/15 12:49:57;;;;;;;2.65;1.27;;;;;;;25.94;63.03;101080.75;6273746;28;20049;-76
2021/07/15 12:53:14;;;;;;;3.42;0.98;;;;;;;26.32;59.52;101080.91;6274213;28;20045;-77
2021/07/15 12:56:20;;;;;;;2.97;0.90;;;;;;;26.59;62.33;101081.47;6274973;28;20049;-76
2021/07/15 12:59:24;;;;;;;3.03;1.00;;;;;;;26.94;61.74;101082.75;6274488;28;20049;-77
2021/07/15 13:02:31;;;;;;;2.13;1.02;;;;;;;26.96;58.39;101086.09;6274490;28;20049;-75
2021/07/15 13:05:33;;;;;;;1.13;0.88;;;;;;;26.90;53.68;101076.03;6273024;28;20045;-76
2021/07/15 13:08:51;;;;;;;5.43;1.20;;;;;;;26.18;58.18;101073.59;6273119;28;20418;-74
2021/07/15 13:15:14;;;;;;;2.63;1.10;;;;;;;25.01;64.20;101088.41;6273625;28;20048;-77
2021/07/15 13:18:17;;;;;;;0.80;0.80;;;;;;;25.05;59.29;101079.84;6273610;28;20552;-78
2021/07/15 13:21:26;;;;;;;2.97;0.68;;;;;;;24.65;60.14;101080.63;6274135;28;20068;-76
2021/07/15 13:24:28;;;;;;;;;;;;;;;24.26;62.80;101080.34;6273566;28;20412;-75
2021/07/15 13:27:32;;;;;;;2.33;0.98;;;;;;;24.72;63.90;101081.66;6272786;28;19921;-75
2021/07/15 13:30:34;;;;;;;1.08;0.80;;;;;;;25.55;58.54;101068.03;6272714;28;20504;-75
2021/07/15 13:33:43;;;;;;;2.15;0.82;;;;;;;25.98;54.68;101067.75;6263110;28;20044;-74
2021/07/15 13:36:57;;;;;;;2.20;0.70;;;;;;;25.99;59.11;101062.22;6256906;28;20221;-76
2021/07/15 13:40:02;;;;;;;2.95;1.45;;;;;;;26.27;61.57;101067.97;6270999;28;20396;-74
2021/07/15 13:43:05;;;;;;;3.35;1.00;;;;;;;26.91;56.40;101067.75;6272715;28;20056;-74
2021/07/15 13:46:09;;;;;;;1.73;0.88;;;;;;;26.79;57.17;101064.63;6272268;28;20068;-74
2021/07/15 13:49:12;;;;;;;4.57;0.90;;;;;;;26.96;54.03;101059.94;6272074;28;20056;-74
2021/07/15 13:52:14;;;;;;;2.17;0.90;;;;;;;26.87;57.65;101060.19;6272614;28;20134;-74
2021/07/15 13:55:17;;;;;;;1.85;0.90;;;;;;;26.50;54.13;101056.41;6272347;28;20040;-74
2021/07/15 13:58:21;;;;;;;3.35;1.10;;;;;;;26.23;55.06;101063.94;6271187;28;20055;-74
2021/07/15 14:01:24;;;;;;;8.18;1.00;;;;;;;25.93;59.12;101060.19;6272609;28;20059;-75
2021/07/15 14:04:27;;;;;;;2.40;0.80;;;;;;;26.43;53.58;101061.66;6272035;28;20052;-74
2021/07/15 14:07:29;;;;;;;4.22;1.08;;;;;;;26.44;54.05;101060.66;6271753;28;20051;-74
2021/07/15 14:10:31;;;;;;;2.25;0.93;;;;;;;26.58;56.84;101063.63;6271707;28;20496;-75
2021/07/15 14:13:37;;;;;;;1.58;0.93;;;;;;;26.98;54.71;101062.44;6271887;28;20493;-74
2021/07/15 14:16:38;;;;;;;1.30;0.90;;;;;;;26.83;58.12;101057.00;6271834;28;20057;-74